Airfield :
LOGIN :

Register | Disclaimer

   EN    FR    IT 

 










Legend :    VFR   Marginal VFR   IFR   Intensive IFR   Very Intensive IFR
Visi :
Ceiling :
>= 8 km
>= 3000ft
5 to 8 km
1000 to 3000 ft
1500m to 5 km
500 to 1000 ft
800 to 1500m
200 to 500 ft
< 800m
< 200 ft
Symbols :   Thunderstorms  Fog  Heavy snow  Heavy precipitations  Wind > 20 kt
SIGMETs :     Misc.  Thunderstorms  Icing  Turbulence  Mountain Waves  Volcanic Ashes






- Airport Elevation : 510 ft


LJCE - Cerklje

CURRENT METAR :
  • 301000Z 06007KT 030V090 9999 SCT027 OVC043 04/M01 Q1022 RMK BLU

EXPIRED METARs :
  • 300930Z 06008KT 9999 SCT027 OVC043 04/M01 Q1022 RMK BLU
  • 300900Z 05009KT 020V080 9999 -RA SCT023 OVC040 04/M01 Q1022 RMK BLU
  • 300830Z 05009KT 020V080 9999 SCT023 OVC040 04/00 Q1022 RMK BLU
  • 300800Z 05009KT 020V080 9999 -RA BKN023 OVC035 04/00 Q1022 RMK WHT
  • 300730Z 06009KT 030V090 9999 BKN023 OVC030 04/01 Q1021 RMK WHT

TAF TAF LJCE
Valid from the 30 at 09:00 until the 30 at 18:00 UTC


300800Z 3009/3018 06005KT 9999 FEW045 BKN060
TEMPO 3009/3012 06010KT -RA BKN023 OVC030
BECMG 3012/3015 06010KT CAVOK



MET'MAP, your aeronautical weather chart ! - Copyright ORBIFLY December 2007 - Disclaimer

ORBIFLY MET'MAP TEAM :

Programming & Development : Alexandra Zaïnal
Concept & original design : Baudouin d'Aumeries
Assistance for programming : Marc-Olivier Méhu
Technical & hardware support : Manuel Goepfert

Contact : metmap@orbifly.com




SOURCES & CREDITS :

   NOAA